Last 24 Hours

Thomas Mountain

10 Minute Data | America/Los_Angeles
as of 5/8/26 1:03 PM PDT
Date & Time Temp (°F) Dew Pt (°F) RH (%) Wind Spd (mph) Wind Dir (°) Wind Gust (mph) Wind Gst Dir (°) Daily Max Temp (°F) Daily Min Temp (°F)
5/8/26 - 1240 72.9 36.6 27 12.8 WSW | 246 20.0 WSW | 249 73.8 58.9
5/8/26 - 1230 72.6 35.3 26 11.8 WSW | 247 21.4 W | 260 73.7 58.9
5/8/26 - 1220 72.8 34.0 24 11.8 WSW | 250 21.9 W | 261 73.7 58.9
5/8/26 - 1210 72.7 34.2 24 11.6 WSW | 251 21.3 W | 261 73.7 58.9
5/8/26 - 1200 72.6 31.8 22 10.8 WSW | 250 21.6 WSW | 246 73.7 58.9
5/8/26 - 1150 72.5 29.7 20 9.9 W | 270 18.3 WSW | 246 73.3 58.9
5/8/26 - 1140 72.6 29.3 20 10.4 WSW | 252 18.5 W | 278 73.3 58.9
5/8/26 - 1130 72.5 27.7 19 10.3 W | 265 19.1 W | 265 73.3 58.9
5/8/26 - 1120 72.7 27.6 19 11.1 WSW | 254 19.0 W | 262 73.2 58.9
5/8/26 - 1110 72.3 26.5 18 11.2 WSW | 250 20.2 W | 267 73.2 58.9
5/8/26 - 1100 72.7 28.1 19 9.6 W | 264 21.3 WSW | 239 73.2 58.9
5/8/26 - 1050 72.3 28.7 20 9.3 WSW | 257 16.9 WSW | 256 73.2 58.9
5/8/26 - 1040 72.1 29.5 21 10.0 W | 263 20.8 WSW | 247 72.8 58.9
5/8/26 - 1030 72.2 29.8 21 10.3 WSW | 251 17.0 WSW | 244 72.8 58.9
5/8/26 - 1020 71.7 29.1 20 9.9 WSW | 251 17.0 WSW | 255 72.4 58.9
5/8/26 - 1010 71.8 29.9 21 10.8 WSW | 250 17.8 WSW | 247 72.4 58.9
5/8/26 - 1000 71.7 29.4 21 9.0 WSW | 252 18.0 WSW | 250 72.3 58.9
5/8/26 - 0950 71.6 28.8 20 8.9 WSW | 254 15.4 WSW | 255 72.2 58.9
5/8/26 - 0940 71.3 28.8 21 8.2 WSW | 256 15.8 W | 267 71.7 58.9
5/8/26 - 0930 71.0 28.5 20 10.3 WSW | 258 18.5 W | 263 71.7 58.9
5/8/26 - 0920 71.1 28.1 20 6.9 WNW | 293 17.0 WNW | 302 71.7 58.9
5/8/26 - 0910 71.1 28.0 20 7.0 W | 276 14.5 WNW | 290 71.7 58.9
5/8/26 - 0900 71.2 29.2 21 4.7 WSW | 254 13.1 SW | 231 71.7 58.9
5/8/26 - 0850 70.0 32.9 25 1.8 WSW | 240 5.2 W | 264 70.7 58.9
5/8/26 - 0840 69.8 34.0 27 3.1 N | 354 9.0 NNE | 30 70.7 58.9
5/8/26 - 0830 68.9 33.5 27 5.0 NNE | 17 9.7 NNE | 13 69.3 58.9
5/8/26 - 0820 68.2 33.0 27 6.9 NNE | 25 12.9 NE | 38 68.4 58.9
5/8/26 - 0810 67.3 32.6 28 7.7 NNE | 23 12.1 NNE | 31 67.8 58.9
5/8/26 - 0800 66.9 32.7 28 7.1 NNE | 29 10.1 NNE | 26 67.3 58.9
5/8/26 - 0750 66.2 32.4 28 7.6 NNE | 21 11.9 NNE | 17 66.7 58.9
5/8/26 - 0740 65.0 32.7 30 8.0 NNE | 27 11.3 NNE | 12 66.4 58.9
5/8/26 - 0730 65.0 32.7 30 7.2 NE | 34 10.0 NNE | 15 66.4 58.9
5/8/26 - 0720 64.1 33.0 31 5.6 NNE | 29 7.8 NNE | 32 66.4 58.9
5/8/26 - 0710 64.4 32.7 31 4.5 NNE | 32 6.6 NE | 44 66.4 58.9
5/8/26 - 0700 63.0 32.1 31 4.8 N | 2 6.8 N | 1 66.4 58.9
5/8/26 - 0650 61.8 32.4 33 5.2 N | 0 7.0 N | 7 66.4 58.9
5/8/26 - 0640 61.3 32.4 34 6.2 N | 7 9.1 NNE | 12 66.4 58.9
5/8/26 - 0630 61.5 32.4 33 6.4 N | 8 7.7 N | 9 66.4 58.9
5/8/26 - 0620 62.0 31.4 31 6.7 N | 2 8.0 N | 8 66.4 58.9
5/8/26 - 0610 61.7 31.4 32 7.8 N | 3 9.4 N | 0 66.4 58.9
5/8/26 - 0600 61.7 31.0 31 6.3 N | 357 8.3 N | 9 66.4 58.9
5/8/26 - 0550 62.6 30.9 30 5.8 N | 358 7.3 N | 1 66.4 58.9
5/8/26 - 0540 65.3 26.3 23 5.6 NNW | 332 9.6 NW | 304 66.4 58.9
5/8/26 - 0530 64.7 26.5 23 6.6 NNW | 330 10.2 NNW | 328 66.4 58.9
5/8/26 - 0520 64.1 29.5 27 6.5 N | 0 9.6 NNW | 338 66.4 58.9
5/8/26 - 0510 65.6 26.2 22 6.4 NNW | 346 9.6 NNW | 327 66.4 58.9
5/8/26 - 0500 65.9 27.9 24 5.9 NNW | 338 10.4 N | 354 66.4 58.9
5/8/26 - 0450 62.4 31.5 31 4.4 N | 351 7.1 N | 354 65.9 58.9
5/8/26 - 0440 61.3 33.9 36 7.6 N | 8 10.0 NNE | 19 65.9 58.9
5/8/26 - 0430 65.0 30.2 27 5.5 N | 350 9.4 NNE | 19 65.9 58.9
5/8/26 - 0420 61.2 33.9 36 5.2 N | 1 7.1 N | 7 63.4 58.9
5/8/26 - 0410 62.3 34.0 35 7.1 N | 6 8.6 N | 11 63.4 58.9
5/8/26 - 0400 62.9 33.6 33 6.7 N | 5 8.4 N | 11 63.4 58.9
5/8/26 - 0350 62.9 32.8 32 5.9 N | 0 7.7 N | 4 63.4 58.9
5/8/26 - 0340 62.1 34.6 36 6.8 N | 356 8.3 N | 5 62.8 58.9
5/8/26 - 0330 60.0 36.7 42 7.0 N | 5 9.3 N | 0 60.9 58.9
5/8/26 - 0320 59.9 37.2 43 7.2 N | 9 9.0 NNE | 14 60.9 58.9
5/8/26 - 0310 59.8 37.4 43 6.7 N | 5 8.8 NNE | 14 60.9 58.9
5/8/26 - 0300 59.7 38.0 44 6.7 N | 5 8.6 N | 11 60.9 58.9
5/8/26 - 0250 59.8 38.0 44 7.1 N | 10 9.2 N | 7 60.9 58.9
5/8/26 - 0240 59.5 37.8 44 6.9 N | 10 8.6 NNE | 16 60.9 58.9
5/8/26 - 0230 59.5 37.6 44 7.2 N | 7 8.8 N | 353 60.9 58.9
5/8/26 - 0220 59.7 37.6 44 7.5 N | 3 10.2 N | 8 60.9 58.9
5/8/26 - 0210 60.1 37.3 42 8.1 N | 6 10.6 N | 9 60.9 58.9
5/8/26 - 0200 60.1 37.0 42 9.1 N | 3 11.6 N | 8 60.9 58.9
5/8/26 - 0150 59.1 36.8 43 9.2 N | 4 12.1 N | 6 60.7 58.9
5/8/26 - 0140 59.4 36.4 42 8.9 NNE | 13 11.0 N | 8 60.7 59.0
5/8/26 - 0130 60.0 36.4 41 8.4 NNE | 18 11.8 N | 4 60.7 59.0
5/8/26 - 0120 59.6 36.1 41 7.4 N | 11 11.2 NNE | 18 60.7 59.0
5/8/26 - 0110 59.5 35.9 41 6.5 N | 8 8.9 N | 11 60.1 59.0
5/8/26 - 0100 59.7 36.0 41 6.0 N | 5 8.5 N | 5 75.8 54.8
5/8/26 - 0050 60.2 36.1 41 4.9 N | 5 7.1 N | 353 75.8 54.8
5/8/26 - 0040 60.9 36.3 40 3.9 N | 7 7.8 NE | 39 75.8 54.8
5/8/26 - 0030 61.8 36.6 39 4.3 N | 8 7.9 NNE | 15 75.8 54.8
5/8/26 - 0020 62.0 36.3 38 4.5 N | 4 8.0 N | 10 75.8 54.8
5/8/26 - 0010 61.5 35.5 38 5.8 N | 7 7.2 NNW | 348 75.8 54.8
5/8/26 - 0000 62.0 35.2 37 4.7 N | 6 7.4 N | 3 75.8 54.8
5/7/26 - 2350 61.5 34.3 36 3.9 N | 7 5.8 N | 10 75.8 54.8
5/7/26 - 2340 61.7 33.5 35 3.3 N | 4 5.0 N | 2 75.8 54.8
5/7/26 - 2330 61.8 33.4 34 4.1 N | 360 7.6 N | 6 75.8 54.8
5/7/26 - 2320 61.9 33.2 34 5.6 NNE | 14 10.2 NNE | 16 75.8 54.8
5/7/26 - 2310 62.0 33.1 34 6.8 NNE | 14 11.8 N | 8 75.8 54.8
5/7/26 - 2300 62.4 33.0 33 7.5 NNE | 17 11.8 NNE | 29 75.8 54.8
5/7/26 - 2250 62.5 32.7 33 8.3 N | 8 11.2 NNE | 22 75.8 54.8
5/7/26 - 2240 63.1 32.5 32 8.8 N | 5 12.5 N | 8 75.8 54.8
5/7/26 - 2230 63.2 31.8 31 7.5 N | 2 9.9 N | 0 75.8 54.8
5/7/26 - 2220 63.6 31.4 30 8.7 N | 0 12.6 N | 6 75.8 54.8
5/7/26 - 2210 63.4 30.6 29 8.7 N | 1 13.4 N | 8 75.8 54.8
5/7/26 - 2200 63.2 30.3 29 6.8 N | 5 9.1 N | 10 75.8 54.8
5/7/26 - 2150 63.5 30.0 28 7.2 N | 352 10.5 NNW | 348 75.8 54.8
5/7/26 - 2140 63.7 30.6 29 7.3 N | 3 13.7 NNW | 336 75.8 54.8
5/7/26 - 2130 64.7 29.6 27 6.9 NNW | 345 13.0 NW | 310 75.8 54.8
5/7/26 - 2120 64.8 29.3 26 7.7 NNW | 342 12.1 NNE | 16 75.8 54.8
5/7/26 - 2110 64.8 29.6 26 7.8 NNW | 331 14.8 NNW | 336 75.8 54.8
5/7/26 - 2100 64.5 30.5 28 7.3 NNW | 336 12.1 NNW | 348 75.8 54.8
5/7/26 - 2050 64.5 30.8 28 9.3 NNW | 345 14.7 NNW | 339 75.8 54.8
5/7/26 - 2040 64.4 31.0 28 9.2 NNW | 347 13.9 NNE | 19 75.8 54.8
5/7/26 - 2030 64.2 31.6 29 9.8 NNW | 348 17.2 N | 0 75.8 54.8
5/7/26 - 2020 63.8 31.8 30 9.4 N | 350 16.5 NNW | 337 75.8 54.8
5/7/26 - 2010 63.7 31.9 30 10.4 N | 5 17.3 NNE | 15 75.8 54.8
5/7/26 - 2000 63.7 31.9 30 9.6 N | 4 14.5 N | 351 75.8 54.8
5/7/26 - 1950 63.8 32.8 31 9.6 N | 3 15.8 NNE | 16 75.8 54.8
5/7/26 - 1940 63.8 35.6 35 8.7 N | 1 14.7 N | 7 75.8 54.8
5/7/26 - 1930 64.3 35.8 35 8.4 N | 5 13.8 N | 6 75.8 54.8
5/7/26 - 1920 64.8 35.8 34 10.7 N | 5 17.8 N | 354 75.8 54.8
5/7/26 - 1910 65.1 35.6 33 10.9 N | 354 19.2 NNW | 327 75.8 54.8
5/7/26 - 1900 65.6 36.4 34 12.6 N | 351 23.4 N | 3 75.8 54.8
5/7/26 - 1850 66.0 38.5 36 11.8 N | 354 19.0 NNE | 13 75.8 54.8
5/7/26 - 1840 66.5 38.8 36 9.3 N | 354 18.3 NNW | 344 75.8 54.8
5/7/26 - 1830 67.2 38.8 35 8.8 N | 4 17.5 N | 4 75.8 54.8
5/7/26 - 1820 67.7 38.9 35 11.5 N | 357 19.6 N | 350 75.8 54.8
5/7/26 - 1810 68.1 38.7 34 11.3 N | 8 21.3 N | 2 75.8 54.8
5/7/26 - 1800 68.8 39.6 34 11.6 N | 5 22.3 NNW | 346 75.8 54.8
5/7/26 - 1750 69.4 43.0 38 10.5 N | 6 16.5 N | 8 75.8 54.8
5/7/26 - 1740 70.0 42.8 37 10.7 N | 0 17.5 N | 2 75.8 54.8
5/7/26 - 1730 71.1 45.7 40 7.5 NNW | 344 13.5 N | 0 75.8 54.8
5/7/26 - 1720 71.0 46.9 42 9.5 NW | 324 18.1 NW | 308 75.8 54.8
5/7/26 - 1710 70.9 47.0 42 10.3 NW | 321 20.0 W | 281 75.8 54.8
5/7/26 - 1700 71.6 46.6 41 10.3 NW | 322 20.8 NNW | 336 75.8 54.8
5/7/26 - 1650 71.8 47.5 42 8.5 NW | 319 17.2 WNW | 290 75.8 54.8
5/7/26 - 1640 72.2 47.5 41 9.0 NW | 304 17.3 WNW | 294 75.8 54.8
5/7/26 - 1630 72.7 47.9 41 8.8 NW | 310 18.6 WNW | 282 75.8 54.8
5/7/26 - 1620 72.9 46.5 39 9.2 NW | 313 16.7 WNW | 286 75.8 54.8
5/7/26 - 1610 73.4 45.4 37 7.7 NW | 322 17.6 W | 278 75.8 54.8
5/7/26 - 1600 73.5 43.7 34 8.2 NNW | 335 18.3 WNW | 286 75.8 54.8
5/7/26 - 1550 73.6 42.7 33 8.7 NW | 326 17.8 NNW | 343 75.8 54.8
5/7/26 - 1540 72.6 41.7 33 8.1 WNW | 293 17.1 W | 274 75.8 54.8
5/7/26 - 1530 73.7 41.3 31 9.5 WNW | 298 20.6 WNW | 290 75.8 54.8
5/7/26 - 1520 72.8 40.1 31 10.6 WNW | 282 19.5 W | 278 75.8 54.8
5/7/26 - 1510 73.5 39.3 29 9.3 WNW | 296 19.1 W | 281 75.8 54.8
5/7/26 - 1500 72.9 38.7 29 9.6 WNW | 297 20.3 NW | 313 75.8 54.8
5/7/26 - 1450 72.5 38.8 29 12.2 W | 269 23.9 WSW | 237 75.8 54.8
5/7/26 - 1440 72.5 39.0 30 13.6 W | 259 24.3 WSW | 255 75.8 54.8
5/7/26 - 1430 72.5 39.1 30 15.1 WSW | 248 25.6 WSW | 257 75.8 54.8
5/7/26 - 1420 72.1 39.1 30 14.0 WSW | 253 25.1 WSW | 240 75.8 54.8
5/7/26 - 1410 72.5 37.4 28 13.1 WSW | 255 21.0 W | 268 75.8 54.8
5/7/26 - 1400 73.0 37.4 27 12.4 W | 270 23.2 WSW | 243 75.8 54.8
5/7/26 - 1350 73.2 34.6 24 14.9 WSW | 238 23.4 SW | 230 75.8 54.8
5/7/26 - 1340 73.9 34.1 23 7.0 WSW | 246 21.1 SW | 227 75.8 54.8
5/7/26 - 1330 73.4 28.8 19 4.7 ENE | 75 10.7 W | 276 75.8 54.8
5/7/26 - 1320 72.8 24.2 16 4.0 ENE | 65 14.0 ESE | 113 75.8 54.8
5/7/26 - 1310 73.6 24.4 16 10.6 ENE | 71 20.3 E | 88 75.8 54.8
5/7/26 - 1300 74.5 24.8 16 10.8 ENE | 68 18.7 ENE | 70 75.8 54.8
Max 74.5 47.9 44 15.1 - 25.6 - 75.8 59.0
Avg 66.6 34.4 31 8.2 - 14.0 - - -
Min 59.1 24.2 16 1.8 - 5.0 - 60.1 54.8